Malmstrom AFB, Montana
Current Conditions -  °F | °C
As of 9:56 PM on Tuesday 21 Oct 2014 (Local Time) from KGFA Reporting Station
Few Clouds Few Clouds  
Wind Chill: 37°   Ceiling: Unl
Heat Index: 44°   Visibility: 10mi
Dew Point: 39°   Wind: 16mph
Humidity: 83%   Direction: 220°SW
Pressure: 29.89"   Gusts: NA
Location:  47.51°N, 111.19°W
Report Text: KGFA 220356Z AUTO 22014KT 10SM FEW160 07/04 A2989 RMK AO2 SLP136 P0001 T00660039
Loading
Personal Weather Stations






























Interactive Weather Map
Tropical Storm Tracking
New forecast layout! Learn more

10-Day Weather Forecast

Advertisements
Track Severe Weather on mobile